sensor_id;sensor_type;location;lat;lon;timestamp;pressure;altitude;pressure_sealevel;temperature;humidity
68380;BME280;57711;53.196;19.638;2024-02-28T00:02:05;100201.41;;;8.20;72.59
68380;BME280;57711;53.196;19.638;2024-02-28T00:04:32;100202.23;;;8.17;72.53
68380;BME280;57711;53.196;19.638;2024-02-28T00:06:59;100196.89;;;8.11;72.42
68380;BME280;57711;53.196;19.638;2024-02-28T00:09:26;100203.49;;;8.08;72.41
68380;BME280;57711;53.196;19.638;2024-02-28T00:11:53;100209.34;;;8.08;72.70
68380;BME280;57711;53.196;19.638;2024-02-28T00:14:21;100210.58;;;8.11;72.61
68380;BME280;57711;53.196;19.638;2024-02-28T00:16:48;100208.40;;;8.14;72.46
68380;BME280;57711;53.196;19.638;2024-02-28T00:19:15;100210.16;;;8.19;72.55
68380;BME280;57711;53.196;19.638;2024-02-28T00:21:44;100211.89;;;8.26;72.56
68380;BME280;57711;53.196;19.638;2024-02-28T00:24:11;100211.48;;;8.34;72.51
68380;BME280;57711;53.196;19.638;2024-02-28T00:26:42;100210.92;;;8.39;72.53
68380;BME280;57711;53.196;19.638;2024-02-28T00:29:10;100211.63;;;8.41;72.52
68380;BME280;57711;53.196;19.638;2024-02-28T00:31:37;100215.07;;;8.43;72.65
68380;BME280;57711;53.196;19.638;2024-02-28T00:34:04;100216.54;;;8.45;72.60
68380;BME280;57711;53.196;19.638;2024-02-28T00:36:31;100211.58;;;8.44;72.60
68380;BME280;57711;53.196;19.638;2024-02-28T00:39:14;100212.67;;;8.42;72.58
68380;BME280;57711;53.196;19.638;2024-02-28T00:41:41;100209.69;;;8.41;72.70
68380;BME280;57711;53.196;19.638;2024-02-28T00:44:08;100211.84;;;8.40;72.72
68380;BME280;57711;53.196;19.638;2024-02-28T00:46:36;100205.32;;;8.39;72.70
68380;BME280;57711;53.196;19.638;2024-02-28T00:49:03;100211.53;;;8.38;72.69
68380;BME280;57711;53.196;19.638;2024-02-28T00:51:30;100216.14;;;8.37;72.75
68380;BME280;57711;53.196;19.638;2024-02-28T00:53:57;100211.83;;;8.34;72.74
68380;BME280;57711;53.196;19.638;2024-02-28T00:56:24;100210.13;;;8.30;72.64
68380;BME280;57711;53.196;19.638;2024-02-28T00:58:52;100210.83;;;8.28;72.90
68380;BME280;57711;53.196;19.638;2024-02-28T01:01:19;100214.23;;;8.28;72.87
68380;BME280;57711;53.196;19.638;2024-02-28T01:03:46;100217.06;;;8.27;72.73
68380;BME280;57711;53.196;19.638;2024-02-28T01:06:13;100216.96;;;8.24;72.66
68380;BME280;57711;53.196;19.638;2024-02-28T01:08:41;100206.08;;;8.18;72.65
68380;BME280;57711;53.196;19.638;2024-02-28T01:11:09;100197.69;;;8.15;72.74
68380;BME280;57711;53.196;19.638;2024-02-28T01:13:37;100196.14;;;8.16;72.88
68380;BME280;57711;53.196;19.638;2024-02-28T01:16:04;100199.70;;;8.17;72.96
68380;BME280;57711;53.196;19.638;2024-02-28T01:18:31;100204.29;;;8.16;72.74
68380;BME280;57711;53.196;19.638;2024-02-28T01:20:59;100204.02;;;8.12;72.72
68380;BME280;57711;53.196;19.638;2024-02-28T01:23:26;100202.56;;;8.10;72.76
68380;BME280;57711;53.196;19.638;2024-02-28T01:25:53;100196.95;;;8.10;72.92
68380;BME280;57711;53.196;19.638;2024-02-28T01:28:20;100194.39;;;8.11;72.75
68380;BME280;57711;53.196;19.638;2024-02-28T01:30:48;100194.00;;;8.09;72.84
68380;BME280;57711;53.196;19.638;2024-02-28T01:33:15;100192.66;;;8.08;72.93
68380;BME280;57711;53.196;19.638;2024-02-28T01:35:43;100198.56;;;8.08;72.95
68380;BME280;57711;53.196;19.638;2024-02-28T01:38:10;100199.36;;;8.10;72.94
68380;BME280;57711;53.196;19.638;2024-02-28T01:40:37;100196.70;;;8.07;72.84
68380;BME280;57711;53.196;19.638;2024-02-28T01:43:08;100197.83;;;8.06;73.03
68380;BME280;57711;53.196;19.638;2024-02-28T01:45:35;100193.37;;;8.06;72.97
68380;BME280;57711;53.196;19.638;2024-02-28T01:48:03;100188.99;;;8.07;72.94
68380;BME280;57711;53.196;19.638;2024-02-28T01:50:35;100187.04;;;8.06;72.97
68380;BME280;57711;53.196;19.638;2024-02-28T01:53:04;100186.33;;;8.06;72.99
68380;BME280;57711;53.196;19.638;2024-02-28T01:55:32;100184.20;;;8.05;72.93
68380;BME280;57711;53.196;19.638;2024-02-28T01:58:00;100187.30;;;8.05;73.03
68380;BME280;57711;53.196;19.638;2024-02-28T02:00:27;100178.83;;;8.03;73.06
68380;BME280;57711;53.196;19.638;2024-02-28T02:02:55;100188.83;;;8.04;73.09
68380;BME280;57711;53.196;19.638;2024-02-28T02:05:22;100189.73;;;8.06;73.10
68380;BME280;57711;53.196;19.638;2024-02-28T02:07:49;100188.76;;;8.07;73.11
68380;BME280;57711;53.196;19.638;2024-02-28T02:10:17;100190.74;;;8.09;73.23
68380;BME280;57711;53.196;19.638;2024-02-28T02:12:44;100197.64;;;8.11;73.23
68380;BME280;57711;53.196;19.638;2024-02-28T02:15:12;100202.65;;;8.09;73.11
68380;BME280;57711;53.196;19.638;2024-02-28T02:17:39;100197.11;;;8.06;73.05
68380;BME280;57711;53.196;19.638;2024-02-28T02:20:09;100197.27;;;8.04;72.84
68380;BME280;57711;53.196;19.638;2024-02-28T02:22:38;100197.36;;;8.01;72.92
68380;BME280;57711;53.196;19.638;2024-02-28T02:25:06;100200.77;;;7.99;72.94
68380;BME280;57711;53.196;19.638;2024-02-28T02:27:33;100202.89;;;7.99;73.15
68380;BME280;57711;53.196;19.638;2024-02-28T02:30:00;100200.99;;;8.01;73.20
68380;BME280;57711;53.196;19.638;2024-02-28T02:32:27;100202.59;;;8.01;73.07
68380;BME280;57711;53.196;19.638;2024-02-28T02:34:55;100198.34;;;8.00;73.26
68380;BME280;57711;53.196;19.638;2024-02-28T02:37:22;100196.11;;;7.96;73.00
68380;BME280;57711;53.196;19.638;2024-02-28T02:39:51;100194.96;;;7.92;73.09
68380;BME280;57711;53.196;19.638;2024-02-28T02:42:18;100197.48;;;7.92;73.29
68380;BME280;57711;53.196;19.638;2024-02-28T02:44:45;100199.65;;;7.92;73.21
68380;BME280;57711;53.196;19.638;2024-02-28T02:47:12;100203.55;;;7.91;73.22
68380;BME280;57711;53.196;19.638;2024-02-28T02:49:39;100211.48;;;7.91;73.15
68380;BME280;57711;53.196;19.638;2024-02-28T02:52:06;100218.27;;;7.91;73.11
68380;BME280;57711;53.196;19.638;2024-02-28T02:54:33;100222.23;;;7.93;73.32
68380;BME280;57711;53.196;19.638;2024-02-28T02:57:00;100230.90;;;7.98;73.14
68380;BME280;57711;53.196;19.638;2024-02-28T02:59:27;100236.02;;;8.00;73.25
68380;BME280;57711;53.196;19.638;2024-02-28T03:01:55;100237.41;;;8.00;73.25
68380;BME280;57711;53.196;19.638;2024-02-28T03:04:22;100235.03;;;8.01;73.46
68380;BME280;57711;53.196;19.638;2024-02-28T03:06:49;100241.24;;;7.99;73.32
68380;BME280;57711;53.196;19.638;2024-02-28T03:09:16;100246.08;;;7.97;73.09
68380;BME280;57711;53.196;19.638;2024-02-28T03:11:43;100250.13;;;7.94;73.33
68380;BME280;57711;53.196;19.638;2024-02-28T03:14:11;100244.98;;;7.90;73.20
68380;BME280;57711;53.196;19.638;2024-02-28T03:16:42;100236.90;;;7.88;73.32
68380;BME280;57711;53.196;19.638;2024-02-28T03:19:10;100232.83;;;7.87;73.18
68380;BME280;57711;53.196;19.638;2024-02-28T03:21:37;100232.00;;;7.86;73.28
68380;BME280;57711;53.196;19.638;2024-02-28T03:24:05;100233.30;;;7.86;73.19
68380;BME280;57711;53.196;19.638;2024-02-28T03:26:32;100229.75;;;7.85;73.29
68380;BME280;57711;53.196;19.638;2024-02-28T03:28:59;100226.54;;;7.82;73.25
68380;BME280;57711;53.196;19.638;2024-02-28T03:31:27;100230.11;;;7.78;73.35
68380;BME280;57711;53.196;19.638;2024-02-28T03:33:54;100229.86;;;7.74;73.45
68380;BME280;57711;53.196;19.638;2024-02-28T03:36:21;100230.30;;;7.73;73.44
68380;BME280;57711;53.196;19.638;2024-02-28T03:38:49;100231.48;;;7.72;73.45
68380;BME280;57711;53.196;19.638;2024-02-28T03:41:16;100227.18;;;7.72;73.43
68380;BME280;57711;53.196;19.638;2024-02-28T03:43:43;100224.31;;;7.72;73.26
68380;BME280;57711;53.196;19.638;2024-02-28T03:46:10;100222.48;;;7.72;73.45
68380;BME280;57711;53.196;19.638;2024-02-28T03:48:37;100219.95;;;7.72;73.40
68380;BME280;57711;53.196;19.638;2024-02-28T03:51:04;100216.04;;;7.71;73.36
68380;BME280;57711;53.196;19.638;2024-02-28T03:53:32;100219.17;;;7.71;73.48
68380;BME280;57711;53.196;19.638;2024-02-28T03:55:59;100224.92;;;7.68;73.35
68380;BME280;57711;53.196;19.638;2024-02-28T03:58:28;100221.92;;;7.68;73.34
68380;BME280;57711;53.196;19.638;2024-02-28T04:00:55;100226.44;;;7.67;73.22
68380;BME280;57711;53.196;19.638;2024-02-28T04:03:22;100226.44;;;7.68;73.52
68380;BME280;57711;53.196;19.638;2024-02-28T04:05:49;100230.65;;;7.66;73.57
68380;BME280;57711;53.196;19.638;2024-02-28T04:08:16;100231.48;;;7.67;73.38
68380;BME280;57711;53.196;19.638;2024-02-28T04:10:44;100228.15;;;7.66;73.55
68380;BME280;57711;53.196;19.638;2024-02-28T04:13:11;100221.23;;;7.65;73.37
68380;BME280;57711;53.196;19.638;2024-02-28T04:15:38;100221.30;;;7.64;73.52
68380;BME280;57711;53.196;19.638;2024-02-28T04:18:05;100216.00;;;7.63;73.48
68380;BME280;57711;53.196;19.638;2024-02-28T04:20:33;100214.38;;;7.61;73.47
68380;BME280;57711;53.196;19.638;2024-02-28T04:23:00;100217.13;;;7.60;73.48
68380;BME280;57711;53.196;19.638;2024-02-28T04:25:27;100215.11;;;7.61;73.48
68380;BME280;57711;53.196;19.638;2024-02-28T04:27:54;100214.09;;;7.57;73.49
68380;BME280;57711;53.196;19.638;2024-02-28T04:30:22;100210.36;;;7.54;73.45
68380;BME280;57711;53.196;19.638;2024-02-28T04:32:49;100214.90;;;7.53;73.51
68380;BME280;57711;53.196;19.638;2024-02-28T04:35:16;100210.77;;;7.51;73.55
68380;BME280;57711;53.196;19.638;2024-02-28T04:37:46;100207.99;;;7.50;73.44
68380;BME280;57711;53.196;19.638;2024-02-28T04:40:13;100208.09;;;7.49;73.43
68380;BME280;57711;53.196;19.638;2024-02-28T04:42:41;100214.75;;;7.49;73.63
68380;BME280;57711;53.196;19.638;2024-02-28T04:45:10;100218.23;;;7.50;73.46
68380;BME280;57711;53.196;19.638;2024-02-28T04:47:37;100219.95;;;7.51;73.67
68380;BME280;57711;53.196;19.638;2024-02-28T04:50:10;100222.77;;;7.52;73.41
68380;BME280;57711;53.196;19.638;2024-02-28T04:52:38;100219.95;;;7.54;73.57
68380;BME280;57711;53.196;19.638;2024-02-28T04:55:06;100224.80;;;7.53;73.56
68380;BME280;57711;53.196;19.638;2024-02-28T04:57:33;100220.46;;;7.47;73.36
68380;BME280;57711;53.196;19.638;2024-02-28T05:00:00;100219.17;;;7.40;73.23
68380;BME280;57711;53.196;19.638;2024-02-28T05:02:27;100220.36;;;7.34;73.25
68380;BME280;57711;53.196;19.638;2024-02-28T05:04:55;100217.34;;;7.34;73.45
68380;BME280;57711;53.196;19.638;2024-02-28T05:07:22;100214.91;;;7.33;73.61
68380;BME280;57711;53.196;19.638;2024-02-28T05:09:49;100217.32;;;7.34;73.64
68380;BME280;57711;53.196;19.638;2024-02-28T05:12:16;100217.87;;;7.34;73.50
68380;BME280;57711;53.196;19.638;2024-02-28T05:14:43;100219.63;;;7.34;73.60
68380;BME280;57711;53.196;19.638;2024-02-28T05:17:11;100225.56;;;7.36;73.64
68380;BME280;57711;53.196;19.638;2024-02-28T05:19:39;100232.09;;;7.38;73.59
68380;BME280;57711;53.196;19.638;2024-02-28T05:22:06;100232.66;;;7.40;73.72
68380;BME280;57711;53.196;19.638;2024-02-28T05:24:33;100229.23;;;7.43;73.76
68380;BME280;57711;53.196;19.638;2024-02-28T05:27:01;100229.33;;;7.44;73.64
68380;BME280;57711;53.196;19.638;2024-02-28T05:29:28;100228.53;;;7.43;73.65
68380;BME280;57711;53.196;19.638;2024-02-28T05:31:55;100226.16;;;7.43;73.67
68380;BME280;57711;53.196;19.638;2024-02-28T05:34:22;100226.98;;;7.42;73.63
68380;BME280;57711;53.196;19.638;2024-02-28T05:36:49;100226.46;;;7.39;73.57
68380;BME280;57711;53.196;19.638;2024-02-28T05:39:17;100227.21;;;7.38;73.54
68380;BME280;57711;53.196;19.638;2024-02-28T05:41:45;100225.33;;;7.37;73.65
68380;BME280;57711;53.196;19.638;2024-02-28T05:44:12;100225.81;;;7.38;73.60
68380;BME280;57711;53.196;19.638;2024-02-28T05:46:39;100226.04;;;7.40;73.64
68380;BME280;57711;53.196;19.638;2024-02-28T05:49:07;100222.39;;;7.38;73.78
68380;BME280;57711;53.196;19.638;2024-02-28T05:51:35;100225.90;;;7.37;73.57
68380;BME280;57711;53.196;19.638;2024-02-28T05:54:03;100223.66;;;7.33;73.73
68380;BME280;57711;53.196;19.638;2024-02-28T05:56:30;100228.42;;;7.32;73.60
68380;BME280;57711;53.196;19.638;2024-02-28T05:58:58;100234.84;;;7.33;73.70
68380;BME280;57711;53.196;19.638;2024-02-28T06:01:25;100238.45;;;7.33;73.72
68380;BME280;57711;53.196;19.638;2024-02-28T06:03:52;100242.27;;;7.35;73.67
68380;BME280;57711;53.196;19.638;2024-02-28T06:06:19;100246.83;;;7.36;73.53
68380;BME280;57711;53.196;19.638;2024-02-28T06:08:47;100246.83;;;7.38;73.69
68380;BME280;57711;53.196;19.638;2024-02-28T06:11:14;100247.36;;;7.41;73.93
68380;BME280;57711;53.196;19.638;2024-02-28T06:13:41;100250.98;;;7.43;73.84
68380;BME280;57711;53.196;19.638;2024-02-28T06:16:15;100249.02;;;7.45;73.83
68380;BME280;57711;53.196;19.638;2024-02-28T06:18:44;100246.16;;;7.47;73.67
68380;BME280;57711;53.196;19.638;2024-02-28T06:21:13;100248.52;;;7.49;73.65
68380;BME280;57711;53.196;19.638;2024-02-28T06:23:41;100252.40;;;7.50;73.72
68380;BME280;57711;53.196;19.638;2024-02-28T06:26:08;100251.21;;;7.52;73.88
68380;BME280;57711;53.196;19.638;2024-02-28T06:28:45;100251.13;;;7.53;73.69
68380;BME280;57711;53.196;19.638;2024-02-28T06:31:16;100252.05;;;7.52;73.79
68380;BME280;57711;53.196;19.638;2024-02-28T06:33:44;100248.14;;;7.52;73.83
68380;BME280;57711;53.196;19.638;2024-02-28T06:36:11;100244.35;;;7.52;73.75
68380;BME280;57711;53.196;19.638;2024-02-28T06:38:39;100246.06;;;7.53;73.86
68380;BME280;57711;53.196;19.638;2024-02-28T06:41:06;100240.51;;;7.53;73.83
68380;BME280;57711;53.196;19.638;2024-02-28T06:43:33;100244.41;;;7.54;73.94
68380;BME280;57711;53.196;19.638;2024-02-28T06:46:02;100246.86;;;7.54;73.84
68380;BME280;57711;53.196;19.638;2024-02-28T06:48:30;100251.69;;;7.55;73.94
68380;BME280;57711;53.196;19.638;2024-02-28T06:50:58;100252.90;;;7.55;73.82
68380;BME280;57711;53.196;19.638;2024-02-28T06:53:25;100255.98;;;7.60;73.91
68380;BME280;57711;53.196;19.638;2024-02-28T06:55:53;100257.58;;;7.63;73.81
68380;BME280;57711;53.196;19.638;2024-02-28T06:58:20;100259.70;;;7.61;73.66
68380;BME280;57711;53.196;19.638;2024-02-28T07:00:48;100255.96;;;7.58;73.76
68380;BME280;57711;53.196;19.638;2024-02-28T07:03:20;100257.46;;;7.57;73.90
68380;BME280;57711;53.196;19.638;2024-02-28T07:05:48;100261.13;;;7.59;73.89
68380;BME280;57711;53.196;19.638;2024-02-28T07:08:15;100260.67;;;7.60;73.96
68380;BME280;57711;53.196;19.638;2024-02-28T07:10:42;100265.71;;;7.63;73.93
68380;BME280;57711;53.196;19.638;2024-02-28T07:13:10;100270.00;;;7.65;74.06
68380;BME280;57711;53.196;19.638;2024-02-28T07:15:38;100264.73;;;7.66;73.98
68380;BME280;57711;53.196;19.638;2024-02-28T07:18:07;100269.58;;;7.68;74.04
68380;BME280;57711;53.196;19.638;2024-02-28T07:20:34;100272.41;;;7.71;73.84
68380;BME280;57711;53.196;19.638;2024-02-28T07:23:01;100278.45;;;7.74;73.94
68380;BME280;57711;53.196;19.638;2024-02-28T07:25:29;100278.32;;;7.76;73.83
68380;BME280;57711;53.196;19.638;2024-02-28T07:27:57;100279.35;;;7.77;73.88
68380;BME280;57711;53.196;19.638;2024-02-28T07:30:26;100279.19;;;7.76;74.04
68380;BME280;57711;53.196;19.638;2024-02-28T07:32:54;100285.89;;;7.76;73.87
68380;BME280;57711;53.196;19.638;2024-02-28T07:35:22;100287.90;;;7.75;73.83
68380;BME280;57711;53.196;19.638;2024-02-28T07:37:50;100287.35;;;7.76;74.00
68380;BME280;57711;53.196;19.638;2024-02-28T07:40:18;100288.95;;;7.76;73.97
68380;BME280;57711;53.196;19.638;2024-02-28T07:42:45;100292.48;;;7.74;73.87
68380;BME280;57711;53.196;19.638;2024-02-28T07:45:13;100292.13;;;7.74;74.04
68380;BME280;57711;53.196;19.638;2024-02-28T07:47:40;100295.21;;;7.74;73.85
68380;BME280;57711;53.196;19.638;2024-02-28T07:50:07;100291.18;;;7.70;73.87
68380;BME280;57711;53.196;19.638;2024-02-28T07:52:35;100295.63;;;7.69;73.97
68380;BME280;57711;53.196;19.638;2024-02-28T07:55:05;100296.31;;;7.69;73.91
68380;BME280;57711;53.196;19.638;2024-02-28T07:57:32;100296.68;;;7.69;73.92
68380;BME280;57711;53.196;19.638;2024-02-28T08:00:00;100297.79;;;7.69;73.96
68380;BME280;57711;53.196;19.638;2024-02-28T08:02:37;100300.55;;;7.68;73.94
68380;BME280;57711;53.196;19.638;2024-02-28T08:05:06;100303.16;;;7.69;74.05
68380;BME280;57711;53.196;19.638;2024-02-28T08:07:34;100305.71;;;7.71;73.88
68380;BME280;57711;53.196;19.638;2024-02-28T08:10:02;100306.42;;;7.71;74.12
68380;BME280;57711;53.196;19.638;2024-02-28T08:12:32;100311.75;;;7.70;73.86
68380;BME280;57711;53.196;19.638;2024-02-28T08:14:59;100314.55;;;7.68;73.88
68380;BME280;57711;53.196;19.638;2024-02-28T08:17:26;100320.98;;;7.69;74.04
68380;BME280;57711;53.196;19.638;2024-02-28T08:19:53;100327.63;;;7.69;73.89
68380;BME280;57711;53.196;19.638;2024-02-28T08:22:21;100332.92;;;7.70;73.98
68380;BME280;57711;53.196;19.638;2024-02-28T08:24:51;100329.19;;;7.70;73.75
68380;BME280;57711;53.196;19.638;2024-02-28T08:27:18;100328.58;;;7.69;73.94
68380;BME280;57711;53.196;19.638;2024-02-28T08:29:46;100326.72;;;7.67;73.78
68380;BME280;57711;53.196;19.638;2024-02-28T08:32:14;100321.21;;;7.68;73.93
68380;BME280;57711;53.196;19.638;2024-02-28T08:34:45;100322.55;;;7.70;73.97
68380;BME280;57711;53.196;19.638;2024-02-28T08:37:16;100323.71;;;7.71;73.93
68380;BME280;57711;53.196;19.638;2024-02-28T08:39:44;100327.54;;;7.73;74.18
68380;BME280;57711;53.196;19.638;2024-02-28T08:42:11;100328.92;;;7.71;73.92
68380;BME280;57711;53.196;19.638;2024-02-28T08:44:39;100335.02;;;7.69;73.99
68380;BME280;57711;53.196;19.638;2024-02-28T08:47:06;100339.38;;;7.69;73.98
68380;BME280;57711;53.196;19.638;2024-02-28T08:49:40;100339.90;;;7.69;74.10
68380;BME280;57711;53.196;19.638;2024-02-28T08:52:08;100344.92;;;7.66;74.20
68380;BME280;57711;53.196;19.638;2024-02-28T08:54:35;100347.55;;;7.65;74.00
68380;BME280;57711;53.196;19.638;2024-02-28T08:57:02;100347.58;;;7.65;74.09
68380;BME280;57711;53.196;19.638;2024-02-28T08:59:30;100347.08;;;7.62;74.10
68380;BME280;57711;53.196;19.638;2024-02-28T09:01:58;100343.46;;;7.60;74.10
68380;BME280;57711;53.196;19.638;2024-02-28T09:04:25;100343.61;;;7.60;74.10
68380;BME280;57711;53.196;19.638;2024-02-28T09:06:52;100344.50;;;7.60;74.17
68380;BME280;57711;53.196;19.638;2024-02-28T09:09:22;100347.27;;;7.60;74.08
68380;BME280;57711;53.196;19.638;2024-02-28T09:11:49;100346.23;;;7.59;74.14
68380;BME280;57711;53.196;19.638;2024-02-28T09:14:17;100345.20;;;7.58;74.24
68380;BME280;57711;53.196;19.638;2024-02-28T09:16:44;100347.89;;;7.58;74.35
68380;BME280;57711;53.196;19.638;2024-02-28T09:19:11;100349.89;;;7.58;74.26
68380;BME280;57711;53.196;19.638;2024-02-28T09:21:38;100348.36;;;7.56;74.28
68380;BME280;57711;53.196;19.638;2024-02-28T09:24:05;100349.17;;;7.58;74.32
68380;BME280;57711;53.196;19.638;2024-02-28T09:26:32;100354.70;;;7.59;74.25
68380;BME280;57711;53.196;19.638;2024-02-28T09:28:59;100356.89;;;7.58;74.11
68380;BME280;57711;53.196;19.638;2024-02-28T09:31:27;100358.49;;;7.59;73.97
68380;BME280;57711;53.196;19.638;2024-02-28T09:33:54;100354.80;;;7.60;74.18
68380;BME280;57711;53.196;19.638;2024-02-28T09:36:21;100355.39;;;7.61;74.24
68380;BME280;57711;53.196;19.638;2024-02-28T09:38:48;100359.73;;;7.64;74.23
68380;BME280;57711;53.196;19.638;2024-02-28T09:41:15;100361.75;;;7.65;74.24
68380;BME280;57711;53.196;19.638;2024-02-28T09:43:44;100365.56;;;7.65;74.01
68380;BME280;57711;53.196;19.638;2024-02-28T09:46:13;100367.83;;;7.61;74.08
68380;BME280;57711;53.196;19.638;2024-02-28T09:48:41;100371.08;;;7.59;74.20
68380;BME280;57711;53.196;19.638;2024-02-28T09:51:08;100372.09;;;7.56;74.21
68380;BME280;57711;53.196;19.638;2024-02-28T09:53:39;100372.17;;;7.56;74.13
68380;BME280;57711;53.196;19.638;2024-02-28T09:56:07;100375.16;;;7.57;74.34
68380;BME280;57711;53.196;19.638;2024-02-28T09:58:34;100377.95;;;7.58;74.21
68380;BME280;57711;53.196;19.638;2024-02-28T10:01:04;100376.28;;;7.56;74.03
68380;BME280;57711;53.196;19.638;2024-02-28T10:03:36;100378.70;;;7.55;74.06
68380;BME280;57711;53.196;19.638;2024-02-28T10:06:05;100379.55;;;7.53;74.04
68380;BME280;57711;53.196;19.638;2024-02-28T10:08:35;100374.49;;;7.53;74.08
68380;BME280;57711;53.196;19.638;2024-02-28T10:11:04;100372.80;;;7.52;74.09
68380;BME280;57711;53.196;19.638;2024-02-28T10:13:31;100371.84;;;7.51;74.26
68380;BME280;57711;53.196;19.638;2024-02-28T10:15:58;100371.08;;;7.51;74.27
68380;BME280;57711;53.196;19.638;2024-02-28T10:18:26;100372.98;;;7.52;74.25
68380;BME280;57711;53.196;19.638;2024-02-28T10:20:53;100372.77;;;7.50;74.26
68380;BME280;57711;53.196;19.638;2024-02-28T10:23:20;100381.75;;;7.50;74.26
68380;BME280;57711;53.196;19.638;2024-02-28T10:25:47;100380.48;;;7.51;74.28
68380;BME280;57711;53.196;19.638;2024-02-28T10:28:23;100381.32;;;7.54;74.41
68380;BME280;57711;53.196;19.638;2024-02-28T10:30:51;100383.68;;;7.56;74.21
68380;BME280;57711;53.196;19.638;2024-02-28T10:33:19;100385.20;;;7.57;74.31
68380;BME280;57711;53.196;19.638;2024-02-28T10:35:50;100384.43;;;7.58;74.39
68380;BME280;57711;53.196;19.638;2024-02-28T10:38:19;100387.04;;;7.60;74.31
68380;BME280;57711;53.196;19.638;2024-02-28T10:40:47;100393.19;;;7.64;74.31
68380;BME280;57711;53.196;19.638;2024-02-28T10:43:16;100399.58;;;7.65;74.19
68380;BME280;57711;53.196;19.638;2024-02-28T10:45:44;100404.21;;;7.65;74.17
68380;BME280;57711;53.196;19.638;2024-02-28T10:48:33;100409.44;;;7.65;74.09
68380;BME280;57711;53.196;19.638;2024-02-28T10:51:02;100411.33;;;7.64;74.13
68380;BME280;57711;53.196;19.638;2024-02-28T10:53:41;100414.08;;;7.59;74.26
68380;BME280;57711;53.196;19.638;2024-02-28T10:56:11;100419.71;;;7.58;74.37
68380;BME280;57711;53.196;19.638;2024-02-28T10:58:55;100420.36;;;7.59;74.18
68380;BME280;57711;53.196;19.638;2024-02-28T11:01:24;100416.19;;;7.59;74.35
68380;BME280;57711;53.196;19.638;2024-02-28T11:03:52;100414.06;;;7.62;74.37
68380;BME280;57711;53.196;19.638;2024-02-28T11:06:22;100410.54;;;7.63;74.23
68380;BME280;57711;53.196;19.638;2024-02-28T11:08:51;100407.16;;;7.65;74.41
68380;BME280;57711;53.196;19.638;2024-02-28T11:11:22;100406.85;;;7.66;74.45
68380;BME280;57711;53.196;19.638;2024-02-28T11:13:53;100413.54;;;7.68;74.21
68380;BME280;57711;53.196;19.638;2024-02-28T11:16:34;100416.36;;;7.69;74.31
68380;BME280;57711;53.196;19.638;2024-02-28T11:19:03;100419.05;;;7.69;74.35
68380;BME280;57711;53.196;19.638;2024-02-28T11:21:34;100419.92;;;7.70;74.39
68380;BME280;57711;53.196;19.638;2024-02-28T11:24:01;100423.92;;;7.69;74.38
68380;BME280;57711;53.196;19.638;2024-02-28T11:26:30;100424.55;;;7.68;74.29
68380;BME280;57711;53.196;19.638;2024-02-28T11:28:57;100424.45;;;7.67;74.20
68380;BME280;57711;53.196;19.638;2024-02-28T11:31:24;100426.73;;;7.68;74.24
68380;BME280;57711;53.196;19.638;2024-02-28T11:33:52;100427.56;;;7.66;74.32
68380;BME280;57711;53.196;19.638;2024-02-28T11:36:19;100428.19;;;7.65;74.46
68380;BME280;57711;53.196;19.638;2024-02-28T11:38:47;100432.39;;;7.64;74.19
68380;BME280;57711;53.196;19.638;2024-02-28T11:41:14;100433.53;;;7.63;74.33
68380;BME280;57711;53.196;19.638;2024-02-28T11:43:41;100430.81;;;7.59;74.19
68380;BME280;57711;53.196;19.638;2024-02-28T11:46:18;100431.16;;;7.56;74.27
68380;BME280;57711;53.196;19.638;2024-02-28T11:48:45;100431.78;;;7.58;74.40
68380;BME280;57711;53.196;19.638;2024-02-28T11:51:13;100434.13;;;7.60;74.49
68380;BME280;57711;53.196;19.638;2024-02-28T11:53:41;100434.84;;;7.60;74.28
68380;BME280;57711;53.196;19.638;2024-02-28T11:56:08;100432.58;;;7.59;74.23
68380;BME280;57711;53.196;19.638;2024-02-28T11:58:35;100427.87;;;7.60;74.34
68380;BME280;57711;53.196;19.638;2024-02-28T12:01:03;100428.64;;;7.61;74.41
68380;BME280;57711;53.196;19.638;2024-02-28T12:03:30;100432.71;;;7.65;74.51
68380;BME280;57711;53.196;19.638;2024-02-28T12:05:57;100433.68;;;7.69;74.52
68380;BME280;57711;53.196;19.638;2024-02-28T12:08:27;100433.02;;;7.70;74.51
68380;BME280;57711;53.196;19.638;2024-02-28T12:11:06;100437.32;;;7.70;74.33
68380;BME280;57711;53.196;19.638;2024-02-28T12:13:33;100437.52;;;7.68;74.18
68380;BME280;57711;53.196;19.638;2024-02-28T12:16:01;100439.04;;;7.67;74.27
68380;BME280;57711;53.196;19.638;2024-02-28T12:18:29;100439.45;;;7.66;74.46
68380;BME280;57711;53.196;19.638;2024-02-28T12:20:56;100435.43;;;7.62;74.31
68380;BME280;57711;53.196;19.638;2024-02-28T12:23:24;100431.98;;;7.60;74.31
68380;BME280;57711;53.196;19.638;2024-02-28T12:25:51;100431.98;;;7.62;74.44
68380;BME280;57711;53.196;19.638;2024-02-28T12:28:18;100434.43;;;7.64;74.28
68380;BME280;57711;53.196;19.638;2024-02-28T12:30:45;100439.73;;;7.62;74.19
68380;BME280;57711;53.196;19.638;2024-02-28T12:33:13;100445.62;;;7.61;74.34
68380;BME280;57711;53.196;19.638;2024-02-28T12:35:41;100446.34;;;7.61;74.33
68380;BME280;57711;53.196;19.638;2024-02-28T12:38:09;100445.39;;;7.59;74.28
68380;BME280;57711;53.196;19.638;2024-02-28T12:40:36;100440.98;;;7.57;74.35
68380;BME280;57711;53.196;19.638;2024-02-28T12:43:04;100444.16;;;7.58;74.39
68380;BME280;57711;53.196;19.638;2024-02-28T12:45:31;100445.41;;;7.59;74.47
68380;BME280;57711;53.196;19.638;2024-02-28T12:47:59;100446.08;;;7.59;74.36
68380;BME280;57711;53.196;19.638;2024-02-28T12:50:28;100450.02;;;7.59;74.48
68380;BME280;57711;53.196;19.638;2024-02-28T12:52:55;100452.01;;;7.59;74.30
68380;BME280;57711;53.196;19.638;2024-02-28T12:55:23;100452.70;;;7.57;74.33